This is the latest recevied weather packets stored in our database for station/object VK4SSH. If no packets are shown the sender has not sent any weather packets the latest 1 day(s).
| Time | Temp. | Humidity | Pressure | Rain* | Wind** | Luminosity | Snow |
|---|---|---|---|---|---|---|---|
| 1778118319 | 24.44° C | 73% | - | 0 mm | - | - | - |
| 1778117719 | 24.44° C | 73% | - | 0 mm | - | - | - |
| 1778117119 | 24.44° C | 74% | - | 0 mm | - | - | - |
| 1778116519 | 23.33° C | 77% | - | 0 mm | - | - | - |
| 1778115919 | 23.33° C | 77% | - | 0 mm | - | - | - |
| 1778115319 | 23.33° C | 77% | - | 0 mm | - | - | - |
| 1778114719 | 23.33° C | 80% | - | 0 mm | - | - | - |
| 1778114119 | 23.33° C | 79% | - | 0 mm | - | - | - |
| 1778113519 | 23.33° C | 79% | - | 0 mm | - | - | - |
| 1778112919 | 23.33° C | 79% | - | 0 mm | - | - | - |
| 1778112319 | 23.33° C | 79% | - | 0 mm | - | - | - |
| 1778111719 | 22.78° C | 81% | - | 0 mm | - | - | - |
| 1778111131 | 22.22° C | 83% | - | 0 mm | - | - | - |
| 1778109919 | 21.11° C | 87% | - | 0 mm | - | - | - |
| 1778109319 | 21.11° C | 89% | - | 0 mm | - | - | - |
| 1778108719 | 20.56° C | 92% | - | 0 mm | - | - | - |
| 1778108119 | 20° C | 96% | - | 0 mm | - | - | - |
| 1778107519 | 19.44° C | 97% | - | 0 mm | - | - | - |
| 1778106919 | 18.89° C | 98% | - | 0 mm | - | - | - |
| 1778106319 | 18.89° C | 98% | - | 0 mm | - | - | - |
| 1778105719 | 18.33° C | 98% | - | 0 mm | - | - | - |
| 1778105119 | 18.33° C | 99% | - | 0 mm | - | - | - |
| 1778104519 | 18.33° C | 99% | - | 0 mm | - | - | - |
| 1778103919 | 18.33° C | 99% | - | 0 mm | - | - | - |
| 1778102719 | 17.78° C | 99% | - | 0 mm | - | - | - |
* Rain latest hour (hover to see other rain measurements)
** Current wind speed in m/s (hover to see current wind gust speed)